Time;durP1;ratioP1;P1;durP2;ratioP2;P2;SDS_P1;SDS_P2;PMS_P1;PMS_P2;Temp;Humidity;BMP_temperature;BMP_pressure;BME280_temperature;BME280_humidity;BME280_pressure;Samples;Min_cycle;Max_cycle;Signal;HPM_P1;HPM_P2
2022/01/27 00:07:36;;;;;;;35.03;20.17;;;;;;;1.41;100.00;100284.03;4972670;28;20448;-80
2022/01/27 00:12:33;;;;;;;31.70;19.85;;;;;;;1.36;100.00;100284.91;4972239;28;20038;-81
2022/01/27 00:15:09;;;;;;;34.25;19.45;;;;;;;1.36;100.00;100284.91;4971804;28;20027;-80
2022/01/27 00:17:40;;;;;;;34.78;19.45;;;;;;;1.21;100.00;100254.94;4972182;28;20057;-80
2022/01/27 00:20:06;;;;;;;;;;;;;;;1.40;100.00;100279.78;4972534;28;20058;-80
2022/01/27 00:22:31;;;;;;;41.00;20.90;;;;;;;1.30;100.00;100259.22;4955954;28;20393;-80
2022/01/27 00:24:57;;;;;;;33.00;19.65;;;;;;;1.36;100.00;100270.34;4971631;28;20083;-80
2022/01/27 00:27:22;;;;;;;33.45;19.27;;;;;;;1.38;100.00;100267.78;4972135;28;20030;-80
2022/01/27 00:29:48;;;;;;;29.48;17.48;;;;;;;1.37;100.00;100269.50;5041194;28;20400;-80
2022/01/27 00:32:13;;;;;;;34.30;18.45;;;;;;;1.39;100.00;100274.63;5052005;28;20053;-81
2022/01/27 00:34:39;;;;;;;35.80;19.88;;;;;;;1.35;100.00;100257.50;5053352;28;20056;-80
2022/01/27 00:37:04;;;;;;;34.22;20.15;;;;;;;1.35;100.00;100250.69;5051746;28;20056;-80
2022/01/27 00:39:30;;;;;;;32.58;19.48;;;;;;;1.34;100.00;100254.09;5051706;28;20036;-81
2022/01/27 00:41:55;;;;;;;37.00;20.25;;;;;;;1.37;100.00;100264.38;5051205;28;20568;-80
2022/01/27 00:44:21;;;;;;;35.28;19.17;;;;;;;1.44;100.00;100265.25;5052703;28;20040;-80
2022/01/27 00:46:46;;;;;;;37.55;19.83;;;;;;;1.34;100.00;100255.81;5051173;28;20075;-80
2022/01/27 00:49:12;;;;;;;35.78;20.55;;;;;;;1.33;100.00;100247.25;5051752;28;20031;-80
2022/01/27 00:51:40;;;;;;;34.95;19.27;;;;;;;1.45;100.00;100256.66;5051311;28;20484;-80
2022/01/27 00:54:16;;;;;;;34.63;19.92;;;;;;;1.44;100.00;100260.09;5051306;28;20091;-80
2022/01/27 00:56:49;;;;;;;34.25;19.45;;;;;;;1.42;100.00;100252.38;5050805;28;20033;-80
2022/01/27 01:04:37;;;;;;;33.88;19.20;;;;;;;1.40;100.00;100217.31;5052574;28;20048;-80
2022/01/27 01:07:03;;;;;;;35.17;19.17;;;;;;;1.47;100.00;100221.56;5050859;28;20029;-80
2022/01/27 01:10:30;;;;;;;35.90;20.17;;;;;;;1.52;100.00;100229.28;5051433;28;20033;-80
2022/01/27 01:14:50;;;;;;;36.28;20.33;;;;;;;1.53;100.00;100219.03;5052027;28;20040;-80
2022/01/27 01:20:00;;;;;;;33.92;18.33;;;;;;;1.52;100.00;100211.31;5051878;28;20388;-80
2022/01/27 01:33:10;;;;;;;39.45;21.45;;;;;;;1.50;100.00;100222.44;5052266;28;20029;-80
2022/01/27 01:35:47;;;;;;;40.42;20.30;;;;;;;1.57;100.00;100228.44;5049949;28;20037;-80
2022/01/27 01:38:19;;;;;;;39.90;21.83;;;;;;;1.55;100.00;100221.56;5051991;28;20350;-80
2022/01/27 01:40:50;;;;;;;40.22;21.10;;;;;;;1.57;100.00;100227.59;5051764;28;20037;-80
2022/01/27 01:43:16;;;;;;;40.90;22.25;;;;;;;1.46;100.00;100197.63;5050739;28;20369;-80
2022/01/27 01:45:42;;;;;;;38.30;20.88;;;;;;;1.55;100.00;100216.44;5050071;28;20556;-80
2022/01/27 01:48:07;;;;;;;35.10;19.08;;;;;;;1.50;100.00;100212.16;5050653;28;20120;-80
2022/01/27 01:50:33;;;;;;;40.70;22.45;;;;;;;1.53;100.00;100207.91;5050461;28;20029;-80
2022/01/27 01:52:59;;;;;;;38.60;21.23;;;;;;;1.53;100.00;100208.75;5051468;28;20380;-80
2022/01/27 01:55:25;;;;;;;36.60;20.35;;;;;;;1.50;100.00;100204.47;5050439;28;20025;-80
2022/01/27 01:57:51;;;;;;;36.97;20.17;;;;;;;1.54;100.00;100214.75;5050185;28;20166;-80
2022/01/27 02:00:17;;;;;;;36.85;21.13;;;;;;;1.56;100.00;100211.31;5050384;28;20373;-80
2022/01/27 02:02:42;;;;;;;35.85;20.20;;;;;;;1.59;100.00;100211.31;5045378;28;20108;-80
2022/01/27 02:05:08;;;;;;;33.88;19.88;;;;;;;1.61;100.00;100225.00;5031734;28;20025;-80
2022/01/27 02:07:49;;;;;;;35.97;19.77;;;;;;;1.57;100.00;100215.59;5013877;28;20030;-80
2022/01/27 02:18:28;;;;;;;35.38;19.25;;;;;;;1.57;100.00;100209.63;5031767;28;20124;-80
2022/01/27 02:20:54;;;;;;;41.92;20.98;;;;;;;1.60;100.00;100213.03;5031391;28;20523;-80
2022/01/27 02:23:19;;;;;;;37.42;19.17;;;;;;;1.52;100.00;100201.91;5031678;28;20116;-80
2022/01/27 02:25:45;;;;;;;33.05;19.23;;;;;;;1.62;100.00;100215.59;5031419;28;20381;-80
2022/01/27 02:28:11;;;;;;;45.17;21.10;;;;;;;1.64;100.00;100216.44;5013656;28;20175;-80
2022/01/27 02:30:36;;;;;;;34.28;19.42;;;;;;;1.59;100.00;100202.75;5031409;28;20040;-80
2022/01/27 02:33:02;;;;;;;40.65;20.98;;;;;;;1.59;100.00;100195.03;5013605;28;20542;-81
2022/01/27 02:35:31;;;;;;;36.22;18.90;;;;;;;1.52;100.00;100178.81;5013651;28;20064;-80
2022/01/27 02:37:57;;;;;;;33.63;19.30;;;;;;;1.63;100.00;100194.19;5013268;28;20032;-80
2022/01/27 02:40:53;;;;;;;34.83;18.75;;;;;;;1.67;100.00;100198.47;5013575;28;20021;-81
2022/01/27 02:43:18;;;;;;;35.22;20.02;;;;;;;1.64;100.00;100204.44;5031065;28;20358;-80
2022/01/27 02:45:55;;;;;;;32.08;17.70;;;;;;;1.64;100.00;100195.88;5031545;28;20029;-81
2022/01/27 02:48:20;;;;;;;33.60;18.13;;;;;;;1.61;100.00;100195.91;5016214;28;20169;-80
2022/01/27 02:50:46;;;;;;;33.65;18.95;;;;;;;1.50;100.00;100176.22;5017310;28;20029;-81
2022/01/27 02:53:12;;;;;;;35.60;19.50;;;;;;;1.62;100.00;100190.75;5035106;28;20029;-80
2022/01/27 02:55:37;;;;;;;32.97;17.92;;;;;;;1.60;100.00;100187.38;5035528;28;20025;-80
2022/01/27 02:58:04;;;;;;;33.95;18.75;;;;;;;1.66;100.00;100191.63;5016939;28;20033;-80
2022/01/27 03:00:30;;;;;;;35.17;18.27;;;;;;;1.68;100.00;100195.03;5012468;28;20176;-80
2022/01/27 03:02:56;;;;;;;32.97;18.15;;;;;;;1.63;100.00;100189.06;5027208;28;20053;-80
2022/01/27 03:05:21;;;;;;;30.17;17.35;;;;;;;1.63;100.00;100176.22;5035837;28;20075;-80
2022/01/27 03:07:48;;;;;;;32.80;18.33;;;;;;;1.58;100.00;100168.53;5035252;28;20036;-80
2022/01/27 03:10:18;;;;;;;33.40;18.08;;;;;;;1.58;100.00;100154.84;5035423;28;20115;-80
2022/01/27 03:12:43;;;;;;;32.67;17.80;;;;;;;1.70;100.00;100170.22;5035071;28;20025;-80
2022/01/27 03:15:11;;;;;;;36.03;17.38;;;;;;;1.68;100.00;100172.75;5052013;28;20056;-80
2022/01/27 03:17:37;;;;;;;33.45;18.63;;;;;;;1.63;100.00;100161.66;5035464;28;20396;-81
2022/01/27 03:20:03;;;;;;;32.92;17.48;;;;;;;1.66;100.00;100165.94;5035050;28;20449;-80
2022/01/27 03:22:28;;;;;;;35.53;18.70;;;;;;;1.60;100.00;100148.84;5035285;28;20446;-80
2022/01/27 03:24:54;;;;;;;35.63;19.08;;;;;;;1.67;100.00;100157.38;5034900;28;20067;-80
2022/01/27 03:27:23;;;;;;;29.15;16.15;;;;;;;1.59;100.00;100131.72;5051886;28;20115;-80
2022/01/27 03:29:49;;;;;;;28.65;16.23;;;;;;;1.60;100.00;100130.88;5034890;28;20384;-80
2022/01/27 03:32:15;;;;;;;33.70;17.85;;;;;;;1.63;100.00;100142.84;5053715;28;20064;-80
2022/01/27 03:34:41;;;;;;;31.48;15.90;;;;;;;1.59;100.00;100136.84;5031515;28;20034;-80
2022/01/27 03:37:06;;;;;;;30.88;16.85;;;;;;;1.67;100.00;100136.84;5014884;28;20037;-80
2022/01/27 03:39:35;;;;;;;30.48;15.50;;;;;;;1.69;100.00;100142.84;5032148;28;20049;-80
2022/01/27 03:42:01;;;;;;;27.30;14.77;;;;;;;1.62;100.00;100115.47;5031564;28;20068;-80
2022/01/27 03:44:28;;;;;;;28.95;15.52;;;;;;;1.66;100.00;100112.03;5014972;28;20060;-80
2022/01/27 03:46:55;;;;;;;27.52;15.13;;;;;;;1.67;100.00;100112.00;5014669;28;20038;-80
2022/01/27 03:49:20;;;;;;;29.33;16.10;;;;;;;1.63;100.00;100100.03;5014822;28;20408;-80
2022/01/27 03:51:46;;;;;;;26.90;14.63;;;;;;;1.69;100.00;100117.16;5014714;28;20037;-80
2022/01/27 03:54:12;;;;;;;25.95;14.80;;;;;;;1.67;100.00;100098.31;5014760;28;20029;-80
2022/01/27 03:56:37;;;;;;;26.08;15.00;;;;;;;1.63;100.00;100089.75;5031658;28;20034;-81
2022/01/27 03:59:03;;;;;;;27.17;14.65;;;;;;;1.74;100.00;100113.72;5013900;28;20105;-80
2022/01/27 04:01:30;;;;;;;23.58;14.57;;;;;;;1.69;100.00;100109.47;5014592;28;20033;-80
2022/01/27 04:03:58;;;;;;;25.33;14.20;;;;;;;1.69;100.00;100107.75;5014258;28;20052;-80
2022/01/27 04:06:32;;;;;;;26.17;15.40;;;;;;;1.72;100.00;100112.84;5014548;28;20636;-80
2022/01/27 04:08:58;;;;;;;24.63;15.13;;;;;;;1.60;100.00;100092.38;5014389;28;20025;-80
2022/01/27 04:11:23;;;;;;;23.80;14.00;;;;;;;1.71;100.00;100094.88;5035737;28;20041;-80
2022/01/27 04:13:49;;;;;;;24.10;13.75;;;;;;;1.70;100.00;100108.59;5052006;28;20408;-80
2022/01/27 04:16:14;;;;;;;25.73;15.05;;;;;;;1.69;100.00;100112.03;5052069;28;20021;-80
2022/01/27 04:18:40;;;;;;;27.15;14.70;;;;;;;1.69;100.00;100102.59;5053291;28;20048;-80
2022/01/27 04:21:05;;;;;;;26.75;14.93;;;;;;;1.64;100.00;100095.75;5051990;28;20059;-80
2022/01/27 04:23:30;;;;;;;20.75;13.63;;;;;;;1.64;100.00;100088.91;5053588;28;20033;-80
2022/01/27 04:25:56;;;;;;;23.48;14.32;;;;;;;1.70;100.00;100096.59;5051878;28;20396;-80
2022/01/27 04:28:26;;;;;;;24.00;13.75;;;;;;;1.62;100.00;100066.69;5052081;28;20532;-80
2022/01/27 04:30:54;;;;;;;22.58;13.77;;;;;;;1.73;100.00;100099.16;5052969;28;20111;-80
2022/01/27 04:33:24;;;;;;;21.10;13.45;;;;;;;1.72;100.00;100091.44;5051639;28;20456;-81
2022/01/27 04:35:50;;;;;;;24.10;14.20;;;;;;;1.65;100.00;100062.38;5051652;28;20573;-80
2022/01/27 04:38:21;;;;;;;20.27;12.63;;;;;;;1.70;100.00;100065.78;5051875;28;20384;-80
2022/01/27 04:45:59;;;;;;;21.98;12.75;;;;;;;1.60;100.00;100052.97;5052491;28;20033;-80
2022/01/27 04:48:26;;;;;;;22.65;13.85;;;;;;;1.71;100.00;100080.31;5030196;28;20468;-80
2022/01/27 04:50:53;;;;;;;20.98;12.98;;;;;;;1.74;100.00;100071.78;5013662;28;20041;-80
2022/01/27 04:53:26;;;;;;;22.23;12.65;;;;;;;1.63;100.00;100055.53;5013610;28;20044;-80
2022/01/27 04:55:54;;;;;;;21.15;12.63;;;;;;;1.67;100.00;100047.81;5030179;28;20091;-80
2022/01/27 04:58:28;;;;;;;19.45;12.25;;;;;;;1.68;100.00;100054.66;5013849;28;20463;-80
2022/01/27 05:00:54;;;;;;;20.52;12.40;;;;;;;1.65;100.00;100046.97;5030232;28;20112;-80
2022/01/27 05:03:31;;;;;;;19.70;12.00;;;;;;;1.70;100.00;100052.94;5013601;28;20229;-80
2022/01/27 05:05:56;;;;;;;21.55;12.73;;;;;;;1.68;100.00;100046.09;5013533;28;20036;-80
2022/01/27 05:08:22;;;;;;;21.30;12.20;;;;;;;1.65;100.00;100034.16;5030160;28;20041;-80
2022/01/27 05:11:12;;;;;;;20.05;11.73;;;;;;;1.66;100.00;100038.41;5029821;28;20037;-80
2022/01/27 05:13:51;;;;;;;20.80;12.20;;;;;;;1.65;100.00;100026.44;5030198;28;20037;-80
2022/01/27 05:16:17;;;;;;;19.77;11.68;;;;;;;1.61;100.00;100032.44;5030130;28;20492;-80
2022/01/27 05:18:42;;;;;;;20.27;12.10;;;;;;;1.66;100.00;100035.00;5019387;28;20043;-80
2022/01/27 05:21:08;;;;;;;18.63;11.32;;;;;;;1.66;100.00;100030.72;5050659;28;20025;-80
2022/01/27 05:23:33;;;;;;;18.98;12.10;;;;;;;1.57;100.00;100011.94;5051246;28;20057;-80
2022/01/27 05:25:58;;;;;;;22.15;12.13;;;;;;;1.62;100.00;100028.16;5051210;28;20108;-80
2022/01/27 05:28:24;;;;;;;19.15;11.40;;;;;;;1.69;100.00;100028.13;5050945;28;20476;-80
2022/01/27 05:30:49;;;;;;;18.33;12.27;;;;;;;1.64;100.00;100014.44;5050759;28;20036;-80
2022/01/27 05:33:15;;;;;;;23.13;13.05;;;;;;;1.67;100.00;100011.03;5051036;28;20040;-80
2022/01/27 05:35:40;;;;;;;20.00;12.10;;;;;;;1.64;100.00;100017.00;5052134;28;20017;-80
2022/01/27 05:38:06;;;;;;;19.85;11.30;;;;;;;1.58;100.00;99988.81;5050633;28;20499;-80
2022/01/27 05:40:31;;;;;;;20.90;11.63;;;;;;;1.68;100.00;100012.72;5052290;28;20515;-80
2022/01/27 05:42:56;;;;;;;21.83;12.57;;;;;;;1.69;100.00;100007.59;5051986;28;20032;-79
2022/01/27 05:45:22;;;;;;;16.55;10.98;;;;;;;1.67;100.00;100003.31;5050924;28;20021;-80
2022/01/27 05:47:47;;;;;;;17.52;11.00;;;;;;;1.68;100.00;99999.88;5051881;28;20040;-80
2022/01/27 05:50:13;;;;;;;20.80;11.55;;;;;;;1.67;100.00;99996.47;5050768;28;20029;-80
2022/01/27 05:52:39;;;;;;;20.70;12.48;;;;;;;1.66;100.00;99991.34;5050851;28;20124;-80
2022/01/27 05:55:05;;;;;;;24.65;12.65;;;;;;;1.67;100.00;100004.16;5051978;28;20024;-80
2022/01/27 05:57:30;;;;;;;22.48;12.60;;;;;;;1.63;100.00;99996.50;5052034;28;20025;-80
2022/01/27 05:59:55;;;;;;;18.40;10.85;;;;;;;1.67;100.00;99995.63;5051727;28;20040;-80
2022/01/27 06:02:21;;;;;;;18.80;11.77;;;;;;;1.69;100.00;100001.63;5047651;28;20156;-80
2022/01/27 06:04:46;;;;;;;20.25;12.77;;;;;;;1.67;100.00;99998.19;5031898;28;20037;-80
2022/01/27 06:07:12;;;;;;;18.80;11.20;;;;;;;1.65;100.00;100005.91;5032192;28;20076;-80
2022/01/27 06:09:37;;;;;;;22.25;13.10;;;;;;;1.64;100.00;100004.16;5014145;28;20393;-80
2022/01/27 06:12:03;;;;;;;20.48;11.43;;;;;;;1.59;100.00;99993.06;5014025;28;20108;-80
2022/01/27 06:14:28;;;;;;;21.48;12.10;;;;;;;1.68;100.00;100012.72;5014168;28;20032;-79
2022/01/27 06:16:54;;;;;;;21.02;11.40;;;;;;;1.65;100.00;100002.50;5013901;28;20033;-80
2022/01/27 06:19:19;;;;;;;23.20;13.95;;;;;;;1.68;100.00;99994.75;5014075;28;20524;-79
2022/01/27 06:21:45;;;;;;;22.63;12.10;;;;;;;1.55;100.00;99967.44;5013974;28;20223;-80
2022/01/27 06:24:11;;;;;;;20.63;12.43;;;;;;;1.70;100.00;99995.59;5033968;28;20041;-80
2022/01/27 06:26:36;;;;;;;18.35;11.57;;;;;;;1.74;100.00;99997.28;5017101;28;20377;-79
2022/01/27 06:29:02;;;;;;;22.35;12.48;;;;;;;1.59;100.00;99980.25;5017886;28;20029;-80
2022/01/27 06:31:28;;;;;;;23.55;12.40;;;;;;;1.74;100.00;99997.28;5035998;28;20040;-80
2022/01/27 06:33:53;;;;;;;21.75;12.68;;;;;;;1.75;100.00;99996.44;5017645;28;20022;-80
2022/01/27 06:36:19;;;;;;;26.00;11.68;;;;;;;1.67;100.00;99986.19;5017650;28;20489;-80
2022/01/27 06:38:45;;;;;;;21.35;12.25;;;;;;;1.62;100.00;99980.22;5035657;28;20022;-80
2022/01/27 06:41:13;;;;;;;19.25;10.95;;;;;;;1.73;100.00;99999.00;5017501;28;20112;-79
2022/01/27 06:43:39;;;;;;;23.42;14.13;;;;;;;1.73;100.00;99986.19;5017898;28;20032;-79
2022/01/27 06:46:04;;;;;;;22.15;11.98;;;;;;;1.68;100.00;99971.63;5017398;28;20025;-79
2022/01/27 06:48:29;;;;;;;21.55;12.30;;;;;;;1.73;100.00;99996.44;5017511;28;20103;-80
2022/01/27 06:50:56;;;;;;;20.02;11.45;;;;;;;1.62;100.00;99969.13;5017323;28;20037;-80
2022/01/27 06:53:22;;;;;;;22.38;12.10;;;;;;;1.66;100.00;99971.66;5017613;28;20029;-79
2022/01/27 06:55:48;;;;;;;22.92;12.43;;;;;;;1.77;100.00;99988.72;5035542;28;20036;-80
2022/01/27 06:58:14;;;;;;;21.77;12.50;;;;;;;1.70;100.00;99972.50;5035201;28;20026;-80
2022/01/27 07:00:41;;;;;;;21.27;12.15;;;;;;;1.78;100.00;99983.59;5017286;28;20036;-79
2022/01/27 07:03:06;;;;;;;28.38;13.85;;;;;;;1.80;100.00;99979.28;5031695;28;20051;-80
2022/01/27 07:05:33;;;;;;;30.20;14.75;;;;;;;1.71;100.00;99954.50;5053770;28;20111;-79
2022/01/27 07:08:00;;;;;;;23.95;13.30;;;;;;;1.87;100.00;99964.69;5054961;28;20108;-79
2022/01/27 07:10:27;;;;;;;20.20;11.98;;;;;;;1.87;100.00;99962.13;5053952;28;20063;-80
2022/01/27 07:12:52;;;;;;;21.20;12.38;;;;;;;1.81;100.00;99957.00;5054903;28;20052;-79
2022/01/27 07:15:19;;;;;;;22.27;12.18;;;;;;;1.82;100.00;99959.59;5054939;28;20460;-80
2022/01/27 07:17:44;;;;;;;17.45;11.25;;;;;;;1.83;100.00;99952.72;5054836;28;20087;-79
2022/01/27 07:20:12;;;;;;;19.77;11.75;;;;;;;1.85;100.00;99967.25;5054650;28;20033;-80
2022/01/27 07:22:40;;;;;;;25.27;13.57;;;;;;;1.87;100.00;99944.16;5054912;28;20068;-80
2022/01/27 07:25:07;;;;;;;21.33;13.32;;;;;;;1.90;100.00;99942.41;5051951;28;20041;-80
2022/01/27 07:27:34;;;;;;;21.77;13.05;;;;;;;1.88;100.00;99945.84;5018886;28;20076;-80
2022/01/27 07:30:00;;;;;;;20.63;13.13;;;;;;;1.88;100.00;99933.00;5031894;28;20511;-80
2022/01/27 07:32:25;;;;;;;21.38;12.45;;;;;;;1.91;100.00;99930.41;5015528;28;20038;-80
2022/01/27 07:34:51;;;;;;;23.38;13.50;;;;;;;1.87;100.00;99923.59;5013926;28;20040;-80
2022/01/27 07:37:16;;;;;;;19.60;12.35;;;;;;;1.89;100.00;99922.72;5032304;28;20033;-80
2022/01/27 07:39:42;;;;;;;17.67;11.55;;;;;;;1.81;100.00;99901.34;5032277;28;20033;-80
2022/01/27 07:42:08;;;;;;;22.55;13.65;;;;;;;1.81;100.00;99897.94;5031950;28;20065;-80
2022/01/27 07:44:33;;;;;;;25.88;14.45;;;;;;;1.86;100.00;99897.06;5015533;28;20404;-80
2022/01/27 07:46:59;;;;;;;24.65;12.80;;;;;;;1.86;100.00;99898.78;5031475;28;20075;-80
2022/01/27 07:49:24;;;;;;;27.15;13.13;;;;;;;1.89;100.00;99904.72;5031604;28;20034;-80
2022/01/27 07:51:50;;;;;;;19.25;12.38;;;;;;;1.79;100.00;99887.69;5031558;28;20049;-80
2022/01/27 07:54:15;;;;;;;19.67;11.38;;;;;;;1.86;100.00;99901.34;5015216;28;20087;-80
2022/01/27 07:56:41;;;;;;;23.27;13.38;;;;;;;1.86;100.00;99909.06;5031521;28;20501;-80
2022/01/27 07:59:09;;;;;;;22.95;13.80;;;;;;;1.85;100.00;99905.63;5031306;28;20034;-80
2022/01/27 08:01:36;;;;;;;23.92;15.10;;;;;;;1.83;100.00;99903.94;5016540;28;20038;-80
2022/01/27 08:04:02;;;;;;;22.50;14.75;;;;;;;1.87;100.00;99916.75;4994723;28;20053;-80
2022/01/27 08:06:28;;;;;;;23.55;14.95;;;;;;;1.81;100.00;99908.22;4991969;28;20140;-80
2022/01/27 08:08:54;;;;;;;25.40;16.10;;;;;;;1.86;100.00;99902.22;4975623;28;20038;-80
2022/01/27 08:11:20;;;;;;;20.45;13.65;;;;;;;1.88;100.00;99881.63;4975724;28;20516;-80
2022/01/27 08:13:45;;;;;;;23.85;14.23;;;;;;;1.91;100.00;99887.59;4959597;28;20069;-80
2022/01/27 08:16:11;;;;;;;24.40;15.05;;;;;;;1.88;100.00;99863.66;4975277;28;20042;-80
2022/01/27 08:18:37;;;;;;;24.83;15.10;;;;;;;1.89;100.00;99860.22;5021805;28;20045;-80
2022/01/27 08:21:03;;;;;;;19.10;11.73;;;;;;;1.80;100.00;99840.59;5030962;28;20037;-80
2022/01/27 08:23:29;;;;;;;20.23;11.05;;;;;;;1.95;100.00;99871.31;5014591;28;20029;-79
2022/01/27 08:26:27;;;;;;;23.58;13.38;;;;;;;1.86;100.00;99857.69;4971947;28;20053;-80
2022/01/27 08:31:06;;;;;;;31.13;19.17;;;;;;;1.95;100.00;99868.75;4972029;28;20121;-79
2022/01/27 08:33:32;;;;;;;29.23;14.45;;;;;;;1.86;100.00;99837.16;4972333;28;20030;-80
2022/01/27 08:36:01;;;;;;;22.95;13.60;;;;;;;1.94;100.00;99838.78;4971873;28;20033;-80
2022/01/27 08:38:28;;;;;;;27.65;17.02;;;;;;;2.03;100.00;99842.16;5007283;28;20049;-80
2022/01/27 08:40:54;;;;;;;37.28;22.27;;;;;;;2.08;100.00;99846.38;5010918;28;20038;-79
2022/01/27 08:43:19;;;;;;;38.00;21.08;;;;;;;2.14;100.00;99845.44;4994516;28;20065;-80
2022/01/27 08:45:46;;;;;;;23.33;14.95;;;;;;;2.18;100.00;99827.41;5006006;28;20204;-80
2022/01/27 08:48:18;;;;;;;25.17;14.63;;;;;;;2.29;100.00;99811.91;4999914;28;20031;-80
2022/01/27 08:50:51;;;;;;;23.33;13.80;;;;;;;2.36;100.00;99807.53;5003182;28;20045;-80
2022/01/27 08:53:16;;;;;;;26.85;15.68;;;;;;;2.45;100.00;99805.72;5010673;28;20548;-80
2022/01/27 08:55:44;;;;;;;34.00;19.27;;;;;;;2.46;100.00;99806.56;4992899;28;20133;-80
2022/01/27 08:58:11;;;;;;;46.78;25.45;;;;;;;2.47;100.00;99805.69;4974813;28;20113;-80
2022/01/27 09:00:37;;;;;;;33.35;19.08;;;;;;;2.45;100.00;99822.88;4991030;28;20048;-80
2022/01/27 09:03:03;;;;;;;31.02;17.50;;;;;;;2.41;100.00;99803.22;5012955;28;20099;-80
2022/01/27 09:05:29;;;;;;;22.02;13.55;;;;;;;2.28;100.00;99799.94;5015273;28;20037;-80
2022/01/27 09:07:57;;;;;;;44.33;24.77;;;;;;;2.43;100.00;99811.75;5014869;28;20035;-80
2022/01/27 09:10:23;;;;;;;27.27;15.18;;;;;;;2.42;100.00;99808.31;5032953;28;20028;-80
2022/01/27 09:12:48;;;;;;;22.52;12.90;;;;;;;2.27;100.00;99777.63;5032830;28;20033;-80
2022/01/27 09:15:14;;;;;;;22.90;14.05;;;;;;;2.41;100.00;99798.06;5014781;28;20029;-80
2022/01/27 09:17:40;;;;;;;22.27;12.88;;;;;;;2.44;100.00;99786.03;4990676;28;20042;-80
2022/01/27 09:20:08;;;;;;;21.67;12.75;;;;;;;2.48;100.00;99785.09;4974183;28;20481;-80
2022/01/27 09:22:36;;;;;;;20.10;12.55;;;;;;;2.48;100.00;99789.41;4974375;28;20116;-80
2022/01/27 09:25:10;;;;;;;18.70;12.82;;;;;;;2.52;100.00;99777.38;4974048;28;20029;-80
2022/01/27 09:27:42;;;;;;;25.05;14.27;;;;;;;2.56;100.00;99771.31;4990770;28;20034;-80
2022/01/27 09:30:09;;;;;;;21.23;13.70;;;;;;;2.63;100.00;99766.09;4974104;28;20085;-80
2022/01/27 09:32:36;;;;;;;34.00;20.92;;;;;;;2.69;100.00;99775.44;4974277;28;20036;-80
2022/01/27 09:35:03;;;;;;;32.55;19.05;;;;;;;2.72;100.00;99783.13;4941778;28;20096;-80
2022/01/27 09:37:28;;;;;;;32.55;19.10;;;;;;;2.72;100.00;99770.25;4974065;28;20096;-80
2022/01/27 09:39:58;;;;;;;28.83;17.77;;;;;;;2.64;100.00;99747.22;4990366;28;20470;-80
2022/01/27 09:42:29;;;;;;;30.25;18.50;;;;;;;2.72;100.00;99775.41;4974072;28;20518;-80
2022/01/27 09:44:58;;;;;;;30.00;17.67;;;;;;;2.58;100.00;99757.59;4954990;28;20030;-80
2022/01/27 09:47:28;;;;;;;29.77;16.88;;;;;;;2.64;100.00;99770.34;4970905;28;20054;-80
2022/01/27 09:50:05;;;;;;;30.63;17.08;;;;;;;2.63;100.00;99768.66;4954561;28;20031;-80
2022/01/27 09:52:32;;;;;;;28.77;17.63;;;;;;;2.62;100.00;99755.84;4954751;28;20034;-80
2022/01/27 09:54:58;;;;;;;29.67;18.92;;;;;;;2.67;100.00;99754.91;4974335;28;20035;-79
2022/01/27 09:57:24;;;;;;;55.80;33.25;;;;;;;2.72;100.00;99759.97;5008872;28;20038;-80
2022/01/27 09:59:50;;;;;;;30.13;17.27;;;;;;;2.72;100.00;99757.41;5009711;28;20042;-80
2022/01/27 10:02:21;;;;;;;26.48;15.10;;;;;;;2.56;100.00;99719.91;5009527;28;20312;-80
2022/01/27 10:04:54;;;;;;;23.30;14.13;;;;;;;2.79;100.00;99753.88;5025393;28;20484;-80
2022/01/27 10:07:23;;;;;;;60.67;37.58;;;;;;;2.72;100.00;99711.09;5029360;28;20049;-80
2022/01/27 10:09:59;;;;;;;38.95;23.90;;;;;;;2.77;100.00;99729.91;5012924;28;20076;-80
2022/01/27 10:12:37;;;;;;;31.48;18.75;;;;;;;2.78;100.00;99705.88;5029644;28;20048;-80
2022/01/27 10:15:10;;;;;;;25.65;14.98;;;;;;;2.92;100.00;99728.84;4970061;28;20133;-80
2022/01/27 10:17:39;;;;;;;26.58;15.10;;;;;;;2.90;100.00;99717.72;4970521;28;20498;-80
2022/01/27 10:20:18;;;;;;;24.65;14.60;;;;;;;2.91;100.00;99715.13;4970185;28;20053;-80
2022/01/27 10:23:18;;;;;;;24.08;14.60;;;;;;;2.96;100.00;99708.19;4970636;28;20043;-79
2022/01/27 10:26:15;;;;;;;23.75;14.50;;;;;;;3.13;100.00;99705.38;4963953;28;20432;-78
2022/01/27 10:28:50;;;;;;;26.55;16.17;;;;;;;3.21;100.00;99693.22;4911402;29;20452;-78
2022/01/27 10:31:24;;;;;;;23.83;14.55;;;;;;;3.30;100.00;99697.38;4934687;29;20037;-78
2022/01/27 10:34:04;;;;;;;25.67;15.13;;;;;;;3.28;100.00;99667.38;4950942;29;20047;-78
2022/01/27 10:36:30;;;;;;;21.30;14.00;;;;;;;3.44;100.00;99695.41;4951176;29;20112;-78
2022/01/27 10:39:05;;;;;;;26.48;15.80;;;;;;;3.39;100.00;99681.78;4950774;29;20051;-78
2022/01/27 10:41:34;;;;;;;28.30;17.65;;;;;;;3.30;100.00;99681.94;4934635;29;20072;-78
2022/01/27 10:44:15;;;;;;;26.73;16.27;;;;;;;3.27;100.00;99683.69;4950827;29;20031;-78
2022/01/27 10:47:10;;;;;;;25.15;15.93;;;;;;;3.19;100.00;99673.53;4964544;28;20049;-78
2022/01/27 10:49:43;;;;;;;28.75;16.80;;;;;;;3.08;100.00;99657.44;4973645;28;20081;-78
2022/01/27 10:52:16;;;;;;;35.78;24.10;;;;;;;3.13;100.00;99673.63;4988469;28;20046;-78
2022/01/27 10:55:20;;;;;;;32.97;21.67;;;;;;;2.96;100.00;99658.47;4970068;28;20027;-78
2022/01/27 10:57:50;;;;;;;32.55;20.83;;;;;;;2.97;100.00;99655.00;4970698;28;20058;-79
2022/01/27 11:00:18;;;;;;;24.30;14.85;;;;;;;2.89;100.00;99655.13;4969774;28;20050;-79
2022/01/27 11:03:01;;;;;;;34.30;21.58;;;;;;;2.88;100.00;99655.16;4970270;28;20089;-79
2022/01/27 11:05:32;;;;;;;38.35;24.42;;;;;;;2.74;100.00;99633.06;4987950;28;20089;-79
2022/01/27 11:07:58;;;;;;;31.02;20.85;;;;;;;2.75;100.00;99637.34;5009065;28;20038;-79
2022/01/27 11:10:24;;;;;;;35.15;19.48;;;;;;;2.71;100.00;99634.84;4996375;28;20042;-79
2022/01/27 11:12:50;;;;;;;29.75;18.02;;;;;;;2.68;100.00;99634.88;5012897;28;20444;-79
2022/01/27 11:15:18;;;;;;;25.42;16.50;;;;;;;2.48;100.00;99605.16;5012548;28;20046;-79
2022/01/27 11:17:46;;;;;;;28.33;18.15;;;;;;;2.61;100.00;99638.41;4980244;28;20069;-79
2022/01/27 11:27:53;;;;;;;25.48;16.77;;;;;;;2.53;100.00;99599.97;5034657;28;20041;-79
2022/01/27 11:30:18;;;;;;;24.88;15.88;;;;;;;2.52;100.00;99595.69;5034899;28;20108;-79
2022/01/27 11:33:01;;;;;;;25.08;15.73;;;;;;;2.46;100.00;99583.78;5035000;28;20168;-79
2022/01/27 11:35:28;;;;;;;26.80;17.52;;;;;;;2.36;100.00;99571.94;4992518;28;20081;-78
2022/01/27 11:37:56;;;;;;;25.50;16.65;;;;;;;2.43;100.00;99580.41;4976407;28;20134;-78
2022/01/27 11:40:43;;;;;;;28.17;16.50;;;;;;;2.44;100.00;99592.38;4992297;28;20339;-78
2022/01/27 11:43:10;;;;;;;28.30;16.10;;;;;;;2.43;100.00;99591.53;4992561;28;20034;-80
2022/01/27 11:45:55;;;;;;;22.25;13.70;;;;;;;2.30;100.00;99566.03;4953764;29;20031;-79
2022/01/27 11:48:24;;;;;;;24.65;13.93;;;;;;;2.39;100.00;99584.72;4915183;29;20127;-81
2022/01/27 11:51:07;;;;;;;25.75;15.07;;;;;;;2.43;100.00;99585.53;4915448;29;20508;-79
2022/01/27 11:53:49;;;;;;;27.52;15.10;;;;;;;2.40;100.00;99585.56;4915470;29;20091;-79
2022/01/27 11:56:23;;;;;;;28.42;15.82;;;;;;;2.38;100.00;99588.19;4915279;29;20040;-79
2022/01/27 11:58:57;;;;;;;24.50;15.57;;;;;;;2.33;100.00;99573.69;4915335;29;20127;-79
2022/01/27 12:01:27;;;;;;;28.17;16.42;;;;;;;2.35;100.00;99583.06;4915085;29;20627;-79
2022/01/27 12:04:05;;;;;;;29.17;18.13;;;;;;;2.28;100.00;99567.78;4915230;29;20115;-79
2022/01/27 12:06:37;;;;;;;29.13;17.67;;;;;;;2.18;100.00;99547.34;4915261;29;20055;-78
2022/01/27 12:09:21;;;;;;;26.25;16.85;;;;;;;2.35;100.00;99565.06;4915042;29;20519;-78
2022/01/27 12:12:02;;;;;;;26.85;17.38;;;;;;;2.38;100.00;99554.75;4916269;29;20528;-78
2022/01/27 12:14:34;;;;;;;28.85;18.27;;;;;;;2.39;100.00;99550.47;4934019;29;20031;-78